Etusivu
METAR-TAF:

METAR-TAF

Lentoasemat :

Östersund-Frösön, Ruotsi

Åre Östersundin lentoasema

Leveyspiiri: 63-11N, Pituuspiiri: 014-30E, korkeus merenpinnasta: 376 m

Tämänhetkinen sää

Tämä raportti tehtiin 16 minuuttia sitten, kello 09.50 UTC
Tuuli 11 kn lännestä/luoteesta
Lämpötila 12°C
Kosteus 88%
Ilmanpaine 1015 hPa
Näkyvyys 10 km tai enemmän
Hajanaisia pilviä 1700 ft:n korkeudessa
Hajonneita pilviä 2200 ft:n korkeudessa
Hajonneita pilviä 2700 ft:n korkeudessa

METAR: ESNZ 270950Z 30011KT 9999 SCT017 BKN022 BKN027 12/10 Q1015

Aika: 12:06 (10:06 UTC)

Sääennuste

Tämä raportti tehtiin 1 tunti ja 36 minuuttia sitten, kello 08.30 UTC
Ennuste voimassa 27. päivästä klo 09 UTC - 27. päivään klo 18 UTC
Tuuli 8 kn lännestä/luoteesta
Näkyvyys 10 km tai enemmän
Hajanaisia pilviä 4000 ft:n korkeudessa

TAF: ESNZ 270830Z 2709/2718 30008KT 9999 SCT040

Säähavainnot ja -ennusteet yli 4000 lentoasemalta (METAR- ja TAF-raportit).

Käytössä olevat sääasemat on merkitty karttaan keltaisilla ja punaisilla pisteillä.

Aseta hiiri pisteen päälle nähdäksesi sääaseman nimen.

Klikkaa sitten nähdäksesi säähavainnot ja -ennusteet.

Kartan vaihtaminen: klikkaa mustalla rastilla varustettuja vihreitä pisteitä, niin voit zoomata sisään; viivalla varustettua vihreää pistettä, niin voit zoomata ulos tai vihreitä nuolia, niin pääset viereisille kartoille.


METAR-TAF: